Time;durP1;ratioP1;P1;durP2;ratioP2;P2;SDS_P1;SDS_P2;PMS_P1;PMS_P2;Temp;Humidity;BMP_temperature;BMP_pressure;BME280_temperature;BME280_humidity;BME280_pressure;Samples;Min_cycle;Max_cycle;Signal;HPM_P1;HPM_P2
2021/09/19 03:31:55;;;;;;;;;8.00;7.00;;;;;;;;6521744;36;153859;-65
2021/09/19 04:06:52;;;;;;;;;9.00;9.00;;;;;;;;5943185;36;1006795;-60
2021/09/19 04:12:55;;;;;;;;;5.67;5.33;;;;;;;;6620543;36;2004423;-60
2021/09/19 04:18:58;;;;;;;;;9.00;7.00;;;;;;;;6500802;46;8957;-60
2021/09/19 04:25:04;;;;;;;;;8.33;7.00;;;;;;;;6509671;36;1006368;-61
2021/09/19 04:31:07;;;;;;;;;8.33;8.00;;;;;;;;6501363;38;9646;-60
2021/09/19 04:37:13;;;;;;;;;9.67;8.00;;;;;;;;6502037;38;9619;-60
2021/09/19 04:43:17;;;;;;;;;9.00;8.25;;;;;;;;6501447;38;8996;-60
2021/09/19 04:49:19;;;;;;;;;11.67;10.33;;;;;;;;6500590;39;9004;-60
2021/09/19 04:55:21;;;;;;;;;7.00;7.00;;;;;;;;6493807;39;8967;-60
2021/09/19 05:01:23;;;;;;;;;9.00;8.33;;;;;;;;6492810;46;9095;-60
2021/09/19 05:07:26;;;;;;;;;9.67;8.67;;;;;;;;6493603;46;8953;-61
2021/09/19 05:13:28;;;;;;;;;8.67;8.67;;;;;;;;6492735;46;8944;-60
2021/09/19 05:19:30;;;;;;;;;7.00;6.00;;;;;;;;6492394;39;8980;-59
2021/09/19 05:25:33;;;;;;;;;11.00;11.00;;;;;;;;6493564;39;8945;-60
2021/09/19 05:31:36;;;;;;;;;6.33;4.00;;;;;;;;6492233;46;8960;-60
2021/09/19 05:37:38;;;;;;;;;8.33;8.33;;;;;;;;6492479;39;8948;-60
2021/09/19 05:43:40;;;;;;;;;6.33;6.33;;;;;;;;6492732;39;8940;-59
2021/09/19 05:49:43;;;;;;;;;9.67;9.67;;;;;;;;6492376;39;9131;-59
2021/09/19 05:55:46;;;;;;;;;7.00;7.00;;;;;;;;6493249;31;8932;-60
2021/09/19 06:01:48;;;;;;;;;8.00;6.33;;;;;;;;6490681;39;8988;-64
2021/09/19 06:07:50;;;;;;;;;11.00;11.00;;;;;;;;6492817;46;9066;-60
2021/09/19 06:13:53;;;;;;;;;8.67;8.67;;;;;;;;6492897;39;9019;-59
2021/09/19 06:19:55;;;;;;;;;10.67;9.00;;;;;;;;6491801;46;9016;-60
2021/09/19 06:25:59;;;;;;;;;8.00;7.00;;;;;;;;6493657;39;8964;-60
2021/09/19 06:32:01;;;;;;;;;10.33;9.33;;;;;;;;6492069;39;8952;-60
2021/09/19 06:38:03;;;;;;;;;10.00;9.33;;;;;;;;6492464;39;8937;-60
2021/09/19 06:44:09;;;;;;;;;10.00;9.33;;;;;;;;6492495;39;9682;-60
2021/09/19 06:50:13;;;;;;;;;7.67;7.67;;;;;;;;6491834;46;8974;-59
2021/09/19 06:56:20;;;;;;;;;10.67;9.00;;;;;;;;6518569;36;9088;-61
2021/09/19 07:02:22;;;;;;;;;8.00;8.00;;;;;;;;6491967;46;9070;-60
2021/09/19 07:08:27;;;;;;;;;10.67;8.33;;;;;;;;6493701;39;9759;-61
2021/09/19 07:14:34;;;;;;;;;10.67;8.00;;;;;;;;6491407;31;8960;-60
2021/09/19 07:20:37;;;;;;;;;5.67;4.33;;;;;;;;6491667;46;8980;-60
2021/09/19 07:26:39;;;;;;;;;8.00;8.00;;;;;;;;6491461;31;8971;-62
2021/09/19 07:32:42;;;;;;;;;10.00;8.00;;;;;;;;6490901;46;9059;-61
2021/09/19 07:38:45;;;;;;;;;4.00;4.00;;;;;;;;6491946;47;8980;-61
2021/09/19 07:44:48;;;;;;;;;9.33;9.00;;;;;;;;6491772;39;9703;-60
2021/09/19 07:50:51;;;;;;;;;8.67;8.67;;;;;;;;6490790;31;8964;-60
2021/09/19 07:56:58;;;;;;;;;10.00;8.67;;;;;;;;6492753;39;9711;-61
2021/09/19 08:03:02;;;;;;;;;6.33;6.00;;;;;;;;6491352;39;9638;-60
2021/09/19 08:09:05;;;;;;;;;7.33;7.33;;;;;;;;6491956;47;8924;-61
2021/09/19 08:15:09;;;;;;;;;7.75;7.75;;;;;;;;6491069;47;9112;-61
2021/09/19 08:21:11;;;;;;;;;9.33;8.00;;;;;;;;6491549;31;9004;-61
2021/09/19 08:27:16;;;;;;;;;3.00;3.00;;;;;;;;6492956;39;8940;-61
2021/09/19 08:33:24;;;;;;;;;6.33;6.33;;;;;;;;6492618;39;8947;-59
2021/09/19 08:39:30;;;;;;;;;7.33;7.33;;;;;;;;6493887;46;9072;-62
2021/09/19 08:45:34;;;;;;;;;4.00;4.00;;;;;;;;6492228;39;9000;-61
2021/09/19 08:51:38;;;;;;;;;5.00;5.00;;;;;;;;6492166;39;9002;-62
2021/09/19 08:57:41;;;;;;;;;7.50;4.75;;;;;;;;6493375;39;8952;-60
2021/09/19 09:03:44;;;;;;;;;6.00;6.00;;;;;;;;6492132;39;8972;-60
2021/09/19 09:09:55;;;;;;;;;5.00;5.00;;;;;;;;6493564;39;9588;-61
2021/09/19 09:16:17;;;;;;;;;4.50;4.50;;;;;;;;6492420;39;8956;-61
2021/09/19 09:22:29;;;;;;;;;6.25;6.25;;;;;;;;6493843;31;8909;-60
2021/09/19 09:28:41;;;;;;;;;5.75;5.75;;;;;;;;6492759;39;8937;-60
2021/09/19 09:35:12;;;;;;;;;5.00;5.00;;;;;;;;6491511;39;9619;-61
2021/09/19 09:41:14;;;;;;;;;4.50;4.00;;;;;;;;6492481;46;8944;-61
2021/09/19 09:47:18;;;;;;;;;3.75;3.75;;;;;;;;6491374;39;8984;-60
2021/09/19 09:53:23;;;;;;;;;5.00;5.00;;;;;;;;6493837;39;8993;-62
2021/09/19 09:59:25;;;;;;;;;4.00;3.00;;;;;;;;6492449;39;8963;-61
2021/09/19 10:05:29;;;;;;;;;5.25;5.25;;;;;;;;6492127;39;9004;-59
2021/09/19 10:11:36;;;;;;;;;5.75;5.75;;;;;;;;6491707;39;8968;-61
2021/09/19 10:17:38;;;;;;;;;6.50;4.75;;;;;;;;6492215;39;8968;-62
2021/09/19 10:23:48;;;;;;;;;3.00;3.00;;;;;;;;6492249;39;9457;-61
2021/09/19 10:30:07;;;;;;;;;7.00;4.50;;;;;;;;6491720;46;8952;-60
2021/09/19 10:36:20;;;;;;;;;5.50;5.50;;;;;;;;6492083;39;9120;-61
2021/09/19 10:42:30;;;;;;;;;4.75;4.75;;;;;;;;6492257;39;9672;-60
2021/09/19 10:48:40;;;;;;;;;3.25;3.25;;;;;;;;6492256;39;9070;-63
2021/09/19 10:54:51;;;;;;;;;3.50;3.00;;;;;;;;6492037;39;8964;-61
2021/09/19 11:01:23;;;;;;;;;4.50;4.50;;;;;;;;6491885;39;9114;-63
2021/09/19 11:07:26;;;;;;;;;3.00;3.00;;;;;;;;6491482;39;9208;-60
2021/09/19 11:13:35;;;;;;;;;2.00;2.00;;;;;;;;6491897;39;9647;-61
2021/09/19 11:19:39;;;;;;;;;7.50;5.75;;;;;;;;6491727;46;9003;-61
2021/09/19 11:25:42;;;;;;;;;4.00;4.00;;;;;;;;6491464;39;8972;-61
2021/09/19 11:31:47;;;;;;;;;7.50;7.50;;;;;;;;6492148;39;8900;-61
2021/09/19 11:37:58;;;;;;;;;6.25;6.25;;;;;;;;6492155;39;8967;-60
2021/09/19 11:44:02;;;;;;;;;8.75;8.25;;;;;;;;6490803;39;8976;-60
2021/09/19 11:50:08;;;;;;;;;6.00;6.00;;;;;;;;6492581;31;9019;-61
2021/09/19 11:56:14;;;;;;;;;4.75;3.75;;;;;;;;6491193;39;9662;-61
2021/09/19 12:02:17;;;;;;;;;3.25;3.25;;;;;;;;6493282;39;9660;-62
2021/09/19 12:08:21;;;;;;;;;2.25;2.00;;;;;;;;6492266;39;9135;-61
2021/09/19 12:14:28;;;;;;;;;2.50;2.50;;;;;;;;6493382;39;8956;-60
2021/09/19 12:20:34;;;;;;;;;4.25;3.25;;;;;;;;6493748;39;8948;-60
2021/09/19 12:26:37;;;;;;;;;4.25;4.25;;;;;;;;6491866;46;9051;-61
2021/09/19 12:32:49;;;;;;;;;1.00;1.00;;;;;;;;6493340;46;8940;-61
2021/09/19 12:38:52;;;;;;;;;7.50;7.25;;;;;;;;6492440;46;9063;-60
2021/09/19 12:44:57;;;;;;;;;3.00;3.00;;;;;;;;6493356;39;8929;-61
2021/09/19 12:51:02;;;;;;;;;2.25;2.00;;;;;;;;6493513;31;9596;-61
2021/09/19 12:57:07;;;;;;;;;4.25;3.25;;;;;;;;6491483;39;8940;-61
2021/09/19 13:03:09;;;;;;;;;3.00;3.00;;;;;;;;6493183;39;9050;-60
2021/09/19 13:09:14;;;;;;;;;3.00;3.00;;;;;;;;6492548;39;9027;-61
2021/09/19 13:15:20;;;;;;;;;4.25;2.75;;;;;;;;6493387;39;8920;-61
2021/09/19 13:21:22;;;;;;;;;4.00;4.00;;;;;;;;6492324;31;9064;-61
2021/09/19 13:27:24;;;;;;;;;4.75;4.75;;;;;;;;6491856;39;9014;-61
2021/09/19 13:33:26;;;;;;;;;3.00;3.00;;;;;;;;6493286;39;8964;-62
2021/09/19 13:39:29;;;;;;;;;6.25;3.00;;;;;;;;6492148;39;9043;-61
2021/09/19 13:45:33;;;;;;;;;3.00;3.00;;;;;;;;6492091;46;8959;-61
2021/09/19 13:51:37;;;;;;;;;4.25;3.50;;;;;;;;6491729;46;8948;-60
2021/09/19 13:57:40;;;;;;;;;5.00;2.00;;;;;;;;6492549;39;8944;-60
2021/09/19 14:03:45;;;;;;;;;2.50;2.50;;;;;;;;6493071;39;8992;-60
2021/09/19 14:09:48;;;;;;;;;5.00;3.00;;;;;;;;6491405;46;8960;-60
2021/09/19 14:15:51;;;;;;;;;3.25;3.25;;;;;;;;6493209;39;8944;-60
2021/09/19 14:21:58;;;;;;;;;2.25;2.00;;;;;;;;6492218;31;9667;-61
2021/09/19 14:28:01;;;;;;;;;2.00;2.00;;;;;;;;6492204;39;8971;-60
2021/09/19 14:34:05;;;;;;;;;2.00;2.00;;;;;;;;6492702;39;8952;-60
2021/09/19 14:40:09;;;;;;;;;3.50;3.50;;;;;;;;6491339;39;8945;-61
2021/09/19 14:46:11;;;;;;;;;2.00;2.00;;;;;;;;6493014;39;8941;-60
2021/09/19 14:52:15;;;;;;;;;2.00;2.00;;;;;;;;6491112;46;8955;-60
2021/09/19 14:58:18;;;;;;;;;3.25;3.25;;;;;;;;6492094;39;9040;-60
2021/09/19 15:04:20;;;;;;;;;5.75;3.50;;;;;;;;6492110;39;8992;-61
2021/09/19 15:10:22;;;;;;;;;3.75;3.75;;;;;;;;6491829;39;8979;-61
2021/09/19 15:16:24;;;;;;;;;6.25;5.75;;;;;;;;6492429;39;8928;-62
2021/09/19 15:22:29;;;;;;;;;4.25;4.25;;;;;;;;6491512;39;8960;-61
2021/09/19 15:28:33;;;;;;;;;5.50;5.50;;;;;;;;6492410;39;8940;-61
2021/09/19 15:34:36;;;;;;;;;5.75;3.75;;;;;;;;6492585;31;8948;-61
2021/09/19 15:47:18;;;;;;;;;6.50;6.50;;;;;;;;6489628;47;9002;-60
2021/09/19 15:53:42;;;;;;;;;5.50;5.50;;;;;;;;6490670;47;8971;-60
2021/09/19 15:59:45;;;;;;;;;6.33;6.00;;;;;;;;6491670;31;8945;-60
2021/09/19 16:05:50;;;;;;;;;6.75;5.50;;;;;;;;6490257;47;8991;-61
2021/09/19 16:11:54;;;;;;;;;6.25;6.25;;;;;;;;6491212;39;8920;-62
2021/09/19 16:17:58;;;;;;;;;7.00;7.00;;;;;;;;6490912;39;8952;-61
2021/09/19 16:24:03;;;;;;;;;7.75;7.75;;;;;;;;6490791;39;8988;-60
2021/09/19 16:30:28;;;;;;;;;6.75;5.75;;;;;;;;6491244;47;9091;-61
2021/09/19 16:36:31;;;;;;;;;7.00;7.00;;;;;;;;6490929;39;9052;-60
2021/09/19 16:42:34;;;;;;;;;9.00;8.67;;;;;;;;6491800;39;8945;-60
2021/09/19 16:48:37;;;;;;;;;9.00;7.67;;;;;;;;6490843;39;8932;-59
2021/09/19 16:54:40;;;;;;;;;10.00;10.00;;;;;;;;6493750;31;8948;-60
2021/09/19 17:00:42;;;;;;;;;10.33;9.33;;;;;;;;6492839;39;8992;-61
2021/09/19 17:06:45;;;;;;;;;12.00;12.00;;;;;;;;6492789;39;9039;-61
2021/09/19 17:12:49;;;;;;;;;8.33;8.33;;;;;;;;6493584;39;8896;-61
2021/09/19 17:18:52;;;;;;;;;14.33;12.67;;;;;;;;6492108;39;8956;-60
2021/09/19 17:24:54;;;;;;;;;11.33;10.00;;;;;;;;6491552;39;8992;-60
2021/09/19 17:30:56;;;;;;;;;14.00;10.33;;;;;;;;6492960;39;9057;-59
2021/09/19 17:36:59;;;;;;;;;16.67;15.67;;;;;;;;6492205;39;9040;-60
2021/09/19 17:43:03;;;;;;;;;16.33;15.00;;;;;;;;6493302;39;8937;-60
2021/09/19 17:49:08;;;;;;;;;21.67;17.33;;;;;;;;6491477;39;9607;-60
2021/09/19 17:55:11;;;;;;;;;15.67;15.33;;;;;;;;6492643;39;9051;-59
2021/09/19 18:01:17;;;;;;;;;13.33;12.00;;;;;;;;6492294;46;9024;-61
2021/09/19 18:07:20;;;;;;;;;14.67;13.67;;;;;;;;6491580;39;8976;-61
2021/09/19 18:13:32;;;;;;;;;18.50;17.00;;;;;;;;6490580;39;8957;-60
2021/09/19 18:19:35;;;;;;;;;15.67;14.00;;;;;;;;6489661;39;8994;-62
2021/09/19 18:25:37;;;;;;;;;13.67;12.67;;;;;;;;6490665;31;8913;-60
2021/09/19 18:31:41;;;;;;;;;21.33;15.00;;;;;;;;6490623;39;8965;-62
2021/09/19 18:37:45;;;;;;;;;12.00;12.00;;;;;;;;6490272;39;9699;-61
2021/09/19 18:43:47;;;;;;;;;9.67;9.67;;;;;;;;6491180;39;8964;-61
2021/09/19 18:49:52;;;;;;;;;13.33;12.67;;;;;;;;6490147;39;8991;-60
2021/09/19 18:55:55;;;;;;;;;14.33;12.00;;;;;;;;6489557;31;8964;-61
2021/09/19 19:01:58;;;;;;;;;10.33;9.00;;;;;;;;6490104;39;9046;-60
2021/09/19 19:08:01;;;;;;;;;6.00;6.00;;;;;;;;6489254;39;9079;-61
2021/09/19 19:14:06;;;;;;;;;11.33;11.33;;;;;;;;6490553;46;8964;-60
2021/09/19 19:20:11;;;;;;;;;13.00;13.00;;;;;;;;6490360;39;9012;-60
2021/09/19 19:26:15;;;;;;;;;9.67;9.67;;;;;;;;6489771;39;8960;-60
2021/09/19 19:32:19;;;;;;;;;10.67;10.67;;;;;;;;6489007;39;9511;-60
2021/09/19 19:38:22;;;;;;;;;11.00;11.00;;;;;;;;6489647;39;8964;-61
2021/09/19 19:44:26;;;;;;;;;9.67;9.67;;;;;;;;6489496;47;8976;-61
2021/09/19 19:50:28;;;;;;;;;11.67;11.67;;;;;;;;6488797;39;9022;-59
2021/09/19 19:56:30;;;;;;;;;9.00;9.00;;;;;;;;6490917;39;9065;-59
2021/09/19 20:02:32;;;;;;;;;12.00;12.00;;;;;;;;6489495;47;9161;-61
2021/09/19 20:08:36;;;;;;;;;11.00;11.00;;;;;;;;6490367;39;9015;-60
2021/09/19 20:14:38;;;;;;;;;13.33;10.00;;;;;;;;6489776;39;9003;-61
2021/09/19 20:20:41;;;;;;;;;16.00;13.00;;;;;;;;6489227;46;8992;-61
2021/09/19 20:26:43;;;;;;;;;16.00;16.00;;;;;;;;6492155;39;9059;-61
2021/09/19 20:32:46;;;;;;;;;14.00;14.00;;;;;;;;6490518;31;9091;-61
2021/09/19 20:38:48;;;;;;;;;16.00;15.00;;;;;;;;6491716;39;9919;-60
2021/09/19 20:44:52;;;;;;;;;16.00;16.00;;;;;;;;6492018;31;8968;-61
2021/09/19 20:50:55;;;;;;;;;14.00;14.00;;;;;;;;6490722;39;8944;-59
2021/09/19 20:56:58;;;;;;;;;15.33;15.33;;;;;;;;6493014;31;9020;-60
2021/09/19 21:03:01;;;;;;;;;14.00;13.67;;;;;;;;6490916;39;8984;-60
2021/09/19 21:09:05;;;;;;;;;14.67;13.33;;;;;;;;6490481;46;9003;-61
2021/09/19 21:15:08;;;;;;;;;16.00;16.00;;;;;;;;6491850;39;8990;-60
2021/09/19 21:21:10;;;;;;;;;14.00;14.00;;;;;;;;6490412;46;9047;-60
2021/09/19 21:27:14;;;;;;;;;14.00;10.33;;;;;;;;6537299;36;9039;-60
2021/09/19 21:33:17;;;;;;;;;13.00;13.00;;;;;;;;6490611;39;8960;-60
2021/09/19 21:39:21;;;;;;;;;11.33;11.33;;;;;;;;6491064;39;8992;-60
2021/09/19 21:45:25;;;;;;;;;11.67;11.67;;;;;;;;6490161;39;9106;-59
2021/09/19 21:51:28;;;;;;;;;9.33;9.33;;;;;;;;6490513;46;8964;-59
2021/09/19 21:57:31;;;;;;;;;8.33;8.33;;;;;;;;6491495;31;8976;-60
2021/09/19 22:03:33;;;;;;;;;12.00;12.00;;;;;;;;6491176;39;9020;-60
2021/09/19 22:09:40;;;;;;;;;11.67;11.67;;;;;;;;6491495;39;9623;-59
2021/09/19 22:15:44;;;;;;;;;10.00;10.00;;;;;;;;6491055;31;9123;-60
2021/09/19 22:21:47;;;;;;;;;11.00;10.00;;;;;;;;6490270;39;8985;-61
2021/09/19 22:27:50;;;;;;;;;10.33;10.33;;;;;;;;6490946;39;8972;-60
2021/09/19 22:33:52;;;;;;;;;12.00;10.33;;;;;;;;6490388;31;9535;-61
2021/09/19 22:39:55;;;;;;;;;9.00;8.00;;;;;;;;6491340;39;9592;-59
2021/09/19 22:45:58;;;;;;;;;8.33;8.33;;;;;;;;6489995;39;8995;-61
2021/09/19 22:52:00;;;;;;;;;14.00;10.67;;;;;;;;6490392;31;8964;-59
2021/09/19 22:58:02;;;;;;;;;14.33;12.33;;;;;;;;6490836;39;8964;-59
2021/09/19 23:04:07;;;;;;;;;15.00;13.67;;;;;;;;6489795;39;9605;-59
2021/09/19 23:10:10;;;;;;;;;14.33;14.33;;;;;;;;6490821;39;8984;-61
2021/09/19 23:16:12;;;;;;;;;15.67;14.67;;;;;;;;6490478;39;9060;-60
2021/09/19 23:22:15;;;;;;;;;19.33;19.33;;;;;;;;6488624;46;8980;-59
2021/09/19 23:28:18;;;;;;;;;20.33;17.67;;;;;;;;6490003;31;8968;-61
2021/09/19 23:34:22;;;;;;;;;15.67;15.67;;;;;;;;6489880;39;9192;-60
2021/09/19 23:40:25;;;;;;;;;18.00;16.00;;;;;;;;6489914;39;9683;-60
2021/09/19 23:46:28;;;;;;;;;13.00;13.00;;;;;;;;6490166;31;9036;-60
2021/09/19 23:52:30;;;;;;;;;16.33;16.33;;;;;;;;6489715;39;8960;-60
2021/09/19 23:58:32;;;;;;;;;21.33;20.67;;;;;;;;6491885;39;8952;-62
